createdAt,value
2017-03-22T00:00:48.007Z,10.63
2017-03-22T00:01:47.711Z,10.64
2017-03-22T00:02:48.041Z,10.67
2017-03-22T00:03:48.059Z,10.6
2017-03-22T00:04:48.068Z,10.57
2017-03-22T00:05:47.804Z,10.64
2017-03-22T00:06:48.102Z,10.57
2017-03-22T00:07:48.116Z,10.61
2017-03-22T00:08:48.140Z,10.61
2017-03-22T00:09:48.147Z,10.61
2017-03-22T00:10:48.170Z,10.59
2017-03-22T00:11:48.181Z,10.61
2017-03-22T00:12:48.203Z,10.61
2017-03-22T00:13:48.217Z,10.57
2017-03-22T00:14:48.230Z,10.53
2017-03-22T00:15:48.241Z,10.54
2017-03-22T00:16:48.257Z,10.6
2017-03-22T00:17:48.277Z,10.6
2017-03-22T00:18:48.296Z,10.59
2017-03-22T00:19:48.309Z,10.57
2017-03-22T00:20:48.320Z,10.56
2017-03-22T00:21:48.348Z,10.51
2017-03-22T00:22:48.359Z,10.56
2017-03-22T00:23:48.376Z,10.59
2017-03-22T00:24:48.387Z,10.57
2017-03-22T00:25:48.401Z,10.57
2017-03-22T00:26:48.423Z,10.54
2017-03-22T00:27:48.433Z,10.53
2017-03-22T00:28:48.453Z,10.57
2017-03-22T00:29:48.467Z,10.53
2017-03-22T00:30:48.482Z,10.51
2017-03-22T00:31:48.496Z,10.54
2017-03-22T00:32:48.516Z,10.48
2017-03-22T00:33:48.535Z,10.53
2017-03-22T00:34:48.547Z,10.46
2017-03-22T00:35:48.559Z,10.48
2017-03-22T00:36:48.579Z,10.53
2017-03-22T00:37:48.596Z,10.51
2017-03-22T00:38:48.613Z,10.46
2017-03-22T00:39:48.658Z,10.41
2017-03-22T00:40:48.642Z,10.46
2017-03-22T00:41:48.653Z,10.4
2017-03-22T00:42:48.683Z,10.44
2017-03-22T00:43:48.710Z,10.41
2017-03-22T00:44:48.702Z,10.42
2017-03-22T00:45:48.716Z,10.42
2017-03-22T00:46:48.735Z,10.44
2017-03-22T00:47:48.751Z,10.41
2017-03-22T00:48:48.769Z,10.44
2017-03-22T00:49:48.786Z,10.44
2017-03-22T00:50:48.792Z,10.44
2017-03-22T00:51:48.815Z,10.4
2017-03-22T00:52:48.833Z,10.4
2017-03-22T00:53:48.844Z,10.41
2017-03-22T00:54:48.862Z,10.38
2017-03-22T00:55:48.874Z,10.46
2017-03-22T00:56:48.884Z,10.42
2017-03-22T00:57:48.918Z,10.41
2017-03-22T00:58:48.934Z,10.48
2017-03-22T00:59:48.935Z,10.38
2017-03-22T01:00:48.954Z,10.38
2017-03-22T01:01:48.657Z,10.41
2017-03-22T01:02:48.995Z,10.44
2017-03-22T01:03:48.998Z,10.37
2017-03-22T01:04:49.237Z,10.46
2017-03-22T01:05:49.033Z,10.4
2017-03-22T01:06:49.299Z,10.35
2017-03-22T01:07:49.064Z,10.34
2017-03-22T01:08:49.078Z,10.38
2017-03-22T01:09:49.094Z,10.38
2017-03-22T01:10:49.110Z,10.35
2017-03-22T01:11:49.128Z,10.33
2017-03-22T01:12:49.146Z,10.31
2017-03-22T01:13:49.157Z,10.33
2017-03-22T01:14:49.172Z,10.3
2017-03-22T01:15:49.191Z,10.35
2017-03-22T01:16:49.201Z,10.42
2017-03-22T01:17:49.227Z,10.41
2017-03-22T01:18:48.931Z,10.41
2017-03-22T01:19:49.250Z,10.34
2017-03-22T01:20:48.951Z,10.38
2017-03-22T01:21:49.286Z,10.33
2017-03-22T01:22:48.991Z,10.31
2017-03-22T01:23:49.321Z,10.33
2017-03-22T01:24:49.425Z,10.28
2017-03-22T01:25:49.433Z,10.25
2017-03-22T01:26:49.443Z,10.28
2017-03-22T01:27:49.452Z,10.31
2017-03-22T01:28:49.450Z,10.31
2017-03-22T01:29:49.464Z,10.28
2017-03-22T01:30:49.468Z,10.23
2017-03-22T01:31:49.478Z,10.28
2017-03-22T01:32:49.460Z,10.25
2017-03-22T01:33:49.469Z,10.3
2017-03-22T01:34:49.490Z,10.26
2017-03-22T01:35:49.496Z,10.23
2017-03-22T01:36:49.517Z,10.25
2017-03-22T01:37:49.538Z,10.26
2017-03-22T01:38:49.553Z,10.19
2017-03-22T01:39:49.562Z,10.25
2017-03-22T01:40:49.586Z,10.22
2017-03-22T01:41:49.604Z,10.15
2017-03-22T01:42:49.616Z,10.23
2017-03-22T01:43:49.627Z,10.19
2017-03-22T01:44:49.326Z,10.17
2017-03-22T01:45:49.748Z,10.1
2017-03-22T01:46:49.676Z,10.13
2017-03-22T01:47:49.689Z,10.12
2017-03-22T01:48:49.711Z,10.15
2017-03-22T01:49:49.721Z,10.1
2017-03-22T01:50:49.426Z,10.25
2017-03-22T01:51:49.745Z,10.1
2017-03-22T01:52:49.767Z,10.07
2017-03-22T01:53:49.877Z,10.09
2017-03-22T01:54:49.802Z,10.16
2017-03-22T01:55:49.809Z,10.05
2017-03-22T01:56:49.830Z,10.09
2017-03-22T01:57:49.843Z,10.07
2017-03-22T01:58:49.856Z,10.07
2017-03-22T01:59:49.874Z,10.09
2017-03-22T02:00:49.891Z,10.1
2017-03-22T02:01:49.904Z,10.09
2017-03-22T02:02:49.918Z,10.1
2017-03-22T02:03:49.941Z,9.99
2017-03-22T02:04:49.952Z,9.97
2017-03-22T02:05:49.968Z,10.02
2017-03-22T02:06:49.986Z,9.94
2017-03-22T02:07:50.000Z,9.98
2017-03-22T02:08:50.013Z,9.97
2017-03-22T02:09:50.033Z,9.99
2017-03-22T02:10:50.037Z,9.95
2017-03-22T02:11:50.054Z,9.94
2017-03-22T02:12:50.077Z,9.92
2017-03-22T02:13:50.103Z,9.98
2017-03-22T02:14:50.110Z,9.95
2017-03-22T02:15:50.127Z,9.92
2017-03-22T02:16:50.130Z,9.97
2017-03-22T02:17:50.156Z,9.94
2017-03-22T02:18:50.167Z,9.89
2017-03-22T02:19:50.181Z,9.89
2017-03-22T02:20:50.202Z,9.87
2017-03-22T02:21:50.218Z,9.92
2017-03-22T02:22:50.233Z,9.89
2017-03-22T02:23:50.247Z,9.89
2017-03-22T02:24:50.261Z,9.8
2017-03-22T02:25:50.267Z,9.86
2017-03-22T02:26:50.296Z,9.89
2017-03-22T02:27:50.311Z,9.84
2017-03-22T02:28:50.325Z,9.87
2017-03-22T02:29:50.342Z,9.87
2017-03-22T02:30:50.363Z,9.84
2017-03-22T02:31:50.056Z,9.83
2017-03-22T02:32:50.076Z,9.82
2017-03-22T02:33:50.084Z,9.79
2017-03-22T02:34:50.416Z,9.74
2017-03-22T02:35:50.431Z,9.76
2017-03-22T02:36:50.138Z,9.8
2017-03-22T02:37:50.457Z,9.84
2017-03-22T02:38:50.474Z,9.74
2017-03-22T02:39:50.489Z,9.77
2017-03-22T02:40:50.193Z,9.8
2017-03-22T02:41:50.209Z,9.73
2017-03-22T02:42:50.536Z,9.76
2017-03-22T02:43:50.553Z,9.74
2017-03-22T02:44:50.570Z,9.72
2017-03-22T02:45:50.269Z,9.74
2017-03-22T02:46:50.594Z,9.77
2017-03-22T02:47:50.614Z,9.65
2017-03-22T02:48:50.633Z,9.68
2017-03-22T02:49:50.645Z,9.66
2017-03-22T02:50:50.660Z,9.77
2017-03-22T02:51:50.673Z,9.66
2017-03-22T02:52:50.692Z,9.69
2017-03-22T02:53:50.706Z,9.64
2017-03-22T02:54:50.720Z,9.76
2017-03-22T02:55:50.731Z,9.62
2017-03-22T02:56:50.750Z,9.77
2017-03-22T02:57:50.770Z,9.72
2017-03-22T02:58:50.465Z,9.74
2017-03-22T02:59:50.796Z,9.65
2017-03-22T03:00:50.811Z,9.72
2017-03-22T03:01:50.834Z,9.66
2017-03-22T03:02:50.528Z,9.69
2017-03-22T03:03:50.539Z,9.66
2017-03-22T03:04:50.866Z,9.68
2017-03-22T03:05:50.883Z,9.69
2017-03-22T03:06:50.897Z,9.65
2017-03-22T03:07:50.610Z,9.66
2017-03-22T03:08:50.621Z,9.72
2017-03-22T03:09:50.959Z,9.66
2017-03-22T03:10:50.979Z,9.68
2017-03-22T03:11:50.974Z,9.68
2017-03-22T03:12:51.012Z,9.74
2017-03-22T03:13:51.007Z,9.66
2017-03-22T03:14:51.026Z,9.59
2017-03-22T03:15:51.033Z,9.58
2017-03-22T03:16:51.164Z,9.61
2017-03-22T03:17:51.193Z,9.55
2017-03-22T03:18:51.203Z,9.58
2017-03-22T03:19:51.214Z,9.59
2017-03-22T03:20:51.221Z,9.55
2017-03-22T03:21:51.228Z,9.55
2017-03-22T03:22:51.238Z,9.56
2017-03-22T03:23:51.258Z,9.56
2017-03-22T03:24:51.266Z,9.56
2017-03-22T03:25:51.184Z,9.56
2017-03-22T03:26:51.322Z,9.59
2017-03-22T03:27:51.321Z,9.48
2017-03-22T03:28:51.330Z,9.48
2017-03-22T03:29:51.361Z,9.47
2017-03-22T03:30:51.369Z,9.55
2017-03-22T03:31:51.378Z,9.54
2017-03-22T03:32:51.378Z,9.51
2017-03-22T03:33:51.313Z,9.5
2017-03-22T03:34:51.396Z,9.44
2017-03-22T03:35:51.404Z,9.43
2017-03-22T03:36:51.413Z,9.46
2017-03-22T03:37:51.414Z,9.41
2017-03-22T03:38:51.459Z,9.44
2017-03-22T03:39:51.468Z,9.47
2017-03-22T03:40:51.480Z,9.41
2017-03-22T03:41:51.177Z,9.46
2017-03-22T03:42:51.487Z,9.39
2017-03-22T03:43:51.530Z,9.43
2017-03-22T03:44:51.503Z,9.46
2017-03-22T03:45:51.512Z,9.34
2017-03-22T03:46:51.521Z,9.44
2017-03-22T03:47:51.522Z,9.39
2017-03-22T03:48:51.534Z,9.39
2017-03-22T03:49:51.549Z,9.37
2017-03-22T03:50:51.585Z,9.37
2017-03-22T03:51:51.613Z,9.37
2017-03-22T03:52:51.613Z,9.34
2017-03-22T03:53:51.873Z,9.32
2017-03-22T03:54:51.718Z,9.31
2017-03-22T03:55:51.642Z,9.37
2017-03-22T03:56:51.340Z,9.23
2017-03-22T03:57:51.669Z,9.31
2017-03-22T03:58:51.685Z,9.37
2017-03-22T03:59:51.699Z,9.37
2017-03-22T04:00:51.713Z,9.37
2017-03-22T04:01:51.489Z,9.23
2017-03-22T04:02:51.740Z,9.25
2017-03-22T04:03:51.753Z,9.31
2017-03-22T04:04:51.779Z,9.26
2017-03-22T04:05:51.787Z,9.26
2017-03-22T04:06:51.803Z,9.28
2017-03-22T04:07:51.819Z,9.26
2017-03-22T04:08:51.876Z,9.36
2017-03-22T04:09:51.849Z,9.29
2017-03-22T04:10:51.347Z,9.29
2017-03-22T04:11:51.568Z,9.28
2017-03-22T04:12:51.889Z,9.31
2017-03-22T04:13:51.911Z,9.28
2017-03-22T04:14:51.926Z,9.28
2017-03-22T04:15:51.937Z,9.26
2017-03-22T04:16:51.950Z,9.22
2017-03-22T04:17:51.973Z,9.28
2017-03-22T04:18:51.985Z,9.26
2017-03-22T04:19:51.993Z,9.25
2017-03-22T04:20:52.010Z,9.28
2017-03-22T04:21:52.020Z,9.26
2017-03-22T04:22:52.034Z,9.19
2017-03-22T04:23:52.053Z,9.19
2017-03-22T04:24:52.123Z,9.16
2017-03-22T04:25:52.089Z,9.28
2017-03-22T04:26:52.101Z,9.13
2017-03-22T04:27:52.127Z,9.19
2017-03-22T04:28:52.130Z,9.23
2017-03-22T04:29:52.142Z,9.14
2017-03-22T04:30:52.157Z,9.11
2017-03-22T04:31:52.171Z,9.25
2017-03-22T04:32:52.186Z,9.16
2017-03-22T04:33:52.210Z,9.16
2017-03-22T04:34:52.220Z,9.18
2017-03-22T04:35:52.261Z,9.18
2017-03-22T04:36:51.932Z,9.16
2017-03-22T04:37:52.262Z,9.18
2017-03-22T04:38:52.281Z,9.16
2017-03-22T04:39:52.290Z,9.16
2017-03-22T04:40:52.304Z,9.13
2017-03-22T04:41:52.321Z,9.14
2017-03-22T04:42:52.338Z,9.19
2017-03-22T04:43:52.353Z,9.16
2017-03-22T04:44:52.372Z,9.19
2017-03-22T04:45:52.378Z,9.13
2017-03-22T04:46:52.386Z,9.19
2017-03-22T04:47:52.412Z,9.14
2017-03-22T04:48:52.429Z,9.13
2017-03-22T04:49:52.435Z,9.1
2017-03-22T04:50:52.442Z,9.08
2017-03-22T04:51:52.461Z,9.1
2017-03-22T04:52:52.481Z,9.1
2017-03-22T04:53:52.494Z,9.1
2017-03-22T04:54:52.528Z,9.11
2017-03-22T04:55:52.523Z,9.1
2017-03-22T04:56:52.247Z,9.08
2017-03-22T04:57:52.618Z,9.08
2017-03-22T04:58:52.567Z,9.1
2017-03-22T04:59:52.586Z,9.08
2017-03-22T05:00:52.596Z,9.08
2017-03-22T05:01:52.609Z,9.02
2017-03-22T05:02:52.632Z,9.02
2017-03-22T05:03:52.645Z,9
2017-03-22T05:04:52.660Z,8.94
2017-03-22T05:05:52.676Z,9.03
2017-03-22T05:06:52.684Z,9.02
2017-03-22T05:07:52.703Z,9
2017-03-22T05:08:52.717Z,9.04
2017-03-22T05:09:52.726Z,8.91
2017-03-22T05:10:52.430Z,9.02
2017-03-22T05:11:52.756Z,9.02
2017-03-22T05:12:52.783Z,8.94
2017-03-22T05:13:52.480Z,8.97
2017-03-22T05:14:52.486Z,8.94
2017-03-22T05:15:52.812Z,8.94
2017-03-22T05:16:52.826Z,8.97
2017-03-22T05:17:52.888Z,9.03
2017-03-22T05:18:52.875Z,8.97
2017-03-22T05:19:52.876Z,8.95
2017-03-22T05:20:52.891Z,8.99
2017-03-22T05:21:52.905Z,8.99
2017-03-22T05:22:52.917Z,8.94
2017-03-22T05:23:52.699Z,8.89
2017-03-22T05:24:52.958Z,8.95
2017-03-22T05:25:52.651Z,8.91
2017-03-22T05:26:52.663Z,8.85
2017-03-22T05:27:52.678Z,8.88
2017-03-22T05:28:52.698Z,8.91
2017-03-22T05:29:52.703Z,8.88
2017-03-22T05:30:52.761Z,8.92
2017-03-22T05:31:52.742Z,8.92
2017-03-22T05:32:53.160Z,8.89
2017-03-22T05:33:52.766Z,8.89
2017-03-22T05:34:53.176Z,8.92
2017-03-22T05:35:52.795Z,8.89
2017-03-22T05:36:53.193Z,8.94
2017-03-22T05:37:53.191Z,8.81
2017-03-22T05:38:52.838Z,8.78
2017-03-22T05:39:53.268Z,8.81
2017-03-22T05:40:52.862Z,8.76
2017-03-22T05:41:52.880Z,8.79
2017-03-22T05:42:52.899Z,8.81
2017-03-22T05:43:52.910Z,8.84
2017-03-22T05:44:52.922Z,8.81
2017-03-22T05:45:53.311Z,8.84
2017-03-22T05:46:53.263Z,8.78
2017-03-22T05:47:52.971Z,8.79
2017-03-22T05:48:52.981Z,8.85
2017-03-22T05:49:53.406Z,8.79
2017-03-22T05:50:53.416Z,8.78
2017-03-22T05:51:53.433Z,8.78
2017-03-22T05:52:53.545Z,8.82
2017-03-22T05:53:53.555Z,8.74
2017-03-22T05:54:53.566Z,8.88
2017-03-22T05:55:53.574Z,8.7
2017-03-22T05:56:53.117Z,8.85
2017-03-22T05:57:53.581Z,8.87
2017-03-22T05:58:53.591Z,8.79
2017-03-22T05:59:53.795Z,8.81
2017-03-22T06:00:53.593Z,8.69
2017-03-22T06:01:53.616Z,8.84
2017-03-22T06:02:53.622Z,8.78
2017-03-22T06:03:53.625Z,8.89
2017-03-22T06:04:53.675Z,8.76
2017-03-22T06:05:53.680Z,8.73
2017-03-22T06:06:53.679Z,8.84
2017-03-22T06:07:53.695Z,8.78
2017-03-22T06:08:53.697Z,8.76
2017-03-22T06:09:53.706Z,8.81
2017-03-22T06:10:53.715Z,8.78
2017-03-22T06:11:53.712Z,8.82
2017-03-22T06:12:53.724Z,8.79
2017-03-22T06:13:53.419Z,8.76
2017-03-22T06:14:53.594Z,8.76
2017-03-22T06:15:53.602Z,8.78
2017-03-22T06:16:53.474Z,8.78
2017-03-22T06:17:53.719Z,8.73
2017-03-22T06:18:53.729Z,8.82
2017-03-22T06:19:53.745Z,8.84
2017-03-22T06:20:53.816Z,8.76
2017-03-22T06:21:53.891Z,8.79
2017-03-22T06:22:53.826Z,8.81
2017-03-22T06:23:53.802Z,8.78
2017-03-22T06:24:53.944Z,8.82
2017-03-22T06:25:53.711Z,8.82
2017-03-22T06:26:53.839Z,8.79
2017-03-22T06:27:53.909Z,8.81
2017-03-22T06:28:53.869Z,8.76
2017-03-22T06:29:53.888Z,8.95
2017-03-22T06:30:53.900Z,8.89
2017-03-22T06:31:53.911Z,8.88
2017-03-22T06:32:53.934Z,8.91
2017-03-22T06:33:53.943Z,8.85
2017-03-22T06:34:53.958Z,8.88
2017-03-22T06:35:53.965Z,8.87
2017-03-22T06:36:53.980Z,8.88
2017-03-22T06:37:54.017Z,8.89
2017-03-22T06:38:54.011Z,9.03
2017-03-22T06:39:54.033Z,8.97
2017-03-22T06:40:54.044Z,8.97
2017-03-22T06:41:53.739Z,8.97
2017-03-22T06:42:54.070Z,9
2017-03-22T06:43:54.088Z,8.97
2017-03-22T06:44:54.106Z,8.99
2017-03-22T06:45:54.124Z,8.97
2017-03-22T06:46:53.827Z,8.95
2017-03-22T06:47:54.150Z,9.06
2017-03-22T06:48:54.161Z,8.99
2017-03-22T06:49:54.181Z,9.06
2017-03-22T06:50:54.189Z,9.1
2017-03-22T06:51:54.214Z,9.1
2017-03-22T06:52:54.230Z,9.11
2017-03-22T06:53:54.240Z,9.14
2017-03-22T06:54:54.238Z,9.18
2017-03-22T06:55:54.266Z,9.18
2017-03-22T06:56:54.276Z,9.16
2017-03-22T06:57:54.292Z,9.22
2017-03-22T06:58:54.310Z,9.28
2017-03-22T06:59:54.318Z,9.31
2017-03-22T07:00:54.332Z,9.26
2017-03-22T07:01:54.034Z,9.39
2017-03-22T07:02:54.358Z,9.29
2017-03-22T07:03:54.377Z,9.31
2017-03-22T07:04:54.389Z,9.41
2017-03-22T07:05:54.401Z,9.44
2017-03-22T07:06:54.417Z,9.47
2017-03-22T07:07:54.539Z,9.48
2017-03-22T07:08:54.447Z,9.55
2017-03-22T07:09:54.457Z,9.59
2017-03-22T07:10:54.482Z,9.62
2017-03-22T07:11:54.489Z,9.64
2017-03-22T07:12:54.507Z,9.64
2017-03-22T07:13:54.656Z,9.68
2017-03-22T07:14:54.225Z,9.72
2017-03-22T07:15:54.546Z,9.76
2017-03-22T07:16:54.249Z,9.77
2017-03-22T07:17:54.582Z,9.79
2017-03-22T07:18:54.595Z,9.72
2017-03-22T07:19:54.612Z,9.77
2017-03-22T07:20:54.622Z,9.76
2017-03-22T07:21:54.630Z,9.82
2017-03-22T07:22:54.647Z,9.83
2017-03-22T07:23:54.843Z,9.86
2017-03-22T07:24:54.749Z,9.86
2017-03-22T07:25:54.692Z,9.91
2017-03-22T07:26:54.705Z,9.86
2017-03-22T07:27:54.731Z,9.95
2017-03-22T07:28:54.739Z,10.07
2017-03-22T07:29:54.756Z,10.02
2017-03-22T07:30:54.765Z,10.16
2017-03-22T07:31:54.779Z,10.07
2017-03-22T07:32:54.792Z,10.1
2017-03-22T07:33:54.811Z,10.2
2017-03-22T07:34:54.831Z,10.19
2017-03-22T07:35:54.835Z,10.17
2017-03-22T07:36:54.854Z,10.26
2017-03-22T07:37:54.875Z,10.22
2017-03-22T07:38:54.889Z,10.25
2017-03-22T07:39:54.901Z,10.23
2017-03-22T07:40:54.919Z,10.28
2017-03-22T07:41:54.620Z,10.3
2017-03-22T07:42:54.951Z,10.3
2017-03-22T07:43:54.965Z,10.25
2017-03-22T07:44:54.978Z,10.44
2017-03-22T07:45:55.043Z,10.4
2017-03-22T07:46:55.015Z,10.41
2017-03-22T07:47:55.032Z,10.42
2017-03-22T07:48:54.728Z,10.44
2017-03-22T07:49:55.051Z,10.54
2017-03-22T07:50:55.063Z,10.59
2017-03-22T07:51:55.073Z,10.61
2017-03-22T07:52:55.102Z,10.63
2017-03-22T07:53:55.110Z,10.59
2017-03-22T07:54:55.131Z,10.64
2017-03-22T07:55:55.136Z,10.67
2017-03-22T07:56:55.150Z,10.79
2017-03-22T07:57:55.171Z,10.78
2017-03-22T07:58:55.189Z,10.75
2017-03-22T07:59:55.319Z,10.76
2017-03-22T08:00:55.000Z,10.75
2017-03-22T08:01:55.273Z,10.78
2017-03-22T08:02:54.930Z,10.79
2017-03-22T08:03:54.941Z,10.82
2017-03-22T08:04:55.275Z,10.87
2017-03-22T08:05:55.284Z,10.92
2017-03-22T08:06:55.301Z,10.92
2017-03-22T08:07:55.323Z,10.94
2017-03-22T08:08:55.341Z,10.97
2017-03-22T08:09:55.356Z,10.99
2017-03-22T08:10:55.401Z,10.93
2017-03-22T08:11:55.373Z,10.93
2017-03-22T08:12:55.398Z,10.99
2017-03-22T08:13:55.409Z,11.05
2017-03-22T08:14:55.429Z,11.1
2017-03-22T08:15:55.555Z,11.12
2017-03-22T08:16:55.566Z,11.22
2017-03-22T08:17:55.474Z,11.17
2017-03-22T08:18:55.485Z,11.26
2017-03-22T08:19:55.504Z,11.23
2017-03-22T08:20:55.532Z,11.29
2017-03-22T08:21:55.532Z,11.36
2017-03-22T08:22:55.549Z,11.37
2017-03-22T08:23:55.565Z,11.3
2017-03-22T08:24:55.582Z,11.45
2017-03-22T08:25:55.279Z,11.36
2017-03-22T08:26:55.607Z,11.51
2017-03-22T08:27:55.318Z,11.45
2017-03-22T08:28:55.646Z,11.47
2017-03-22T08:29:55.342Z,11.54
2017-03-22T08:30:55.457Z,11.6
2017-03-22T08:31:55.683Z,11.65
2017-03-22T08:32:55.826Z,11.62
2017-03-22T08:33:55.718Z,11.7
2017-03-22T08:34:55.734Z,11.75
2017-03-22T08:35:55.745Z,11.84
2017-03-22T08:36:55.769Z,11.72
2017-03-22T08:37:55.469Z,11.72
2017-03-22T08:38:55.835Z,11.84
2017-03-22T08:39:55.609Z,11.95
2017-03-22T08:40:55.514Z,11.9
2017-03-22T08:41:55.565Z,11.99
2017-03-22T08:42:55.546Z,12
2017-03-22T08:43:55.561Z,12.06
2017-03-22T08:44:55.583Z,12.09
2017-03-22T08:45:55.603Z,12.17
2017-03-22T08:46:55.610Z,12.29
2017-03-22T08:47:55.938Z,12.32
2017-03-22T08:48:56.111Z,12.28
2017-03-22T08:49:55.990Z,12.39
2017-03-22T08:50:55.870Z,12.32
2017-03-22T08:51:56.000Z,12.45
2017-03-22T08:52:56.013Z,12.42
2017-03-22T08:53:56.101Z,12.55
2017-03-22T08:54:55.742Z,12.64
2017-03-22T08:55:56.063Z,12.6
2017-03-22T08:56:55.773Z,12.64
2017-03-22T08:57:55.473Z,12.7
2017-03-22T08:58:56.125Z,12.73
2017-03-22T08:59:56.133Z,12.8
2017-03-22T09:00:56.148Z,12.91
2017-03-22T09:01:56.377Z,12.97
2017-03-22T09:02:56.170Z,12.93
2017-03-22T09:03:56.192Z,13.04
2017-03-22T09:04:56.209Z,13.03
2017-03-22T09:05:56.228Z,13.11
2017-03-22T09:06:56.237Z,13.09
2017-03-22T09:07:56.257Z,13.09
2017-03-22T09:08:56.285Z,13.15
2017-03-22T09:09:56.294Z,13.18
2017-03-22T09:10:56.310Z,13.22
2017-03-22T09:11:56.450Z,13.33
2017-03-22T09:12:56.338Z,13.31
2017-03-22T09:13:56.356Z,13.35
2017-03-22T09:14:56.156Z,13.49
2017-03-22T09:15:56.085Z,13.54
2017-03-22T09:16:56.531Z,13.62
2017-03-22T09:17:56.421Z,13.6
2017-03-22T09:18:56.128Z,13.7
2017-03-22T09:19:56.454Z,13.77
2017-03-22T09:20:56.162Z,13.77
2017-03-22T09:21:56.493Z,13.78
2017-03-22T09:22:56.506Z,13.85
2017-03-22T09:23:56.528Z,13.92
2017-03-22T09:24:56.538Z,13.99
2017-03-22T09:25:56.562Z,13.96
2017-03-22T09:26:56.573Z,14.1
2017-03-22T09:27:56.588Z,14.17
2017-03-22T09:28:56.616Z,14.2
2017-03-22T09:29:56.628Z,14.22
2017-03-22T09:30:56.656Z,14.2
2017-03-22T09:31:56.692Z,14.26
2017-03-22T09:32:56.680Z,14.32
2017-03-22T09:33:56.696Z,14.33
2017-03-22T09:34:56.711Z,14.45
2017-03-22T09:35:56.732Z,14.47
2017-03-22T09:36:56.741Z,14.43
2017-03-22T09:37:56.766Z,14.51
2017-03-22T09:38:56.776Z,14.54
2017-03-22T09:39:56.796Z,14.55
2017-03-22T09:40:56.812Z,14.63
2017-03-22T09:41:56.839Z,14.65
2017-03-22T09:42:56.851Z,14.63
2017-03-22T09:43:56.866Z,14.73
2017-03-22T09:44:56.883Z,14.78
2017-03-22T09:45:56.910Z,14.73
2017-03-22T09:46:56.939Z,14.77
2017-03-22T09:47:56.938Z,14.72
2017-03-22T09:48:56.953Z,14.73
2017-03-22T09:49:56.660Z,14.81
2017-03-22T09:50:56.678Z,14.81
2017-03-22T09:51:56.700Z,14.84
2017-03-22T09:52:57.063Z,14.92
2017-03-22T09:53:56.730Z,14.94
2017-03-22T09:54:57.062Z,14.86
2017-03-22T09:55:57.077Z,14.94
2017-03-22T09:56:57.095Z,14.88
2017-03-22T09:57:57.114Z,14.89
2017-03-22T09:58:57.134Z,14.99
2017-03-22T09:59:57.154Z,15.04
2017-03-22T10:00:56.853Z,15.11
2017-03-22T10:01:57.184Z,15.15
2017-03-22T10:02:57.202Z,15.21
2017-03-22T10:03:56.907Z,15.21
2017-03-22T10:04:56.926Z,15.25
2017-03-22T10:05:57.269Z,15.28
2017-03-22T10:06:56.967Z,15.27
2017-03-22T10:07:57.295Z,15.19
2017-03-22T10:08:57.314Z,15.31
2017-03-22T10:09:57.333Z,15.35
2017-03-22T10:10:57.346Z,15.36
2017-03-22T10:11:57.367Z,15.36
2017-03-22T10:12:57.385Z,15.42
2017-03-22T10:13:57.468Z,15.35
2017-03-22T10:14:57.426Z,15.43
2017-03-22T10:15:57.447Z,15.47
2017-03-22T10:16:57.457Z,15.47
2017-03-22T10:17:57.481Z,15.59
2017-03-22T10:18:57.509Z,15.54
2017-03-22T10:19:57.204Z,15.52
2017-03-22T10:20:57.534Z,15.59
2017-03-22T10:21:57.551Z,15.54
2017-03-22T10:22:57.573Z,15.61
2017-03-22T10:23:57.586Z,15.67
2017-03-22T10:24:57.604Z,15.64
2017-03-22T10:25:57.629Z,15.67
2017-03-22T10:26:57.652Z,15.62
2017-03-22T10:27:57.756Z,15.75
2017-03-22T10:28:57.776Z,15.67
2017-03-22T10:29:57.782Z,15.65
2017-03-22T10:30:57.791Z,15.64
2017-03-22T10:31:57.801Z,15.64
2017-03-22T10:32:57.856Z,15.65
2017-03-22T10:33:57.462Z,15.62
2017-03-22T10:34:57.904Z,15.62
2017-03-22T10:35:57.922Z,15.65
2017-03-22T10:36:57.921Z,15.62
2017-03-22T10:37:57.953Z,15.65
2017-03-22T10:38:57.953Z,15.58
2017-03-22T10:39:57.960Z,15.62
2017-03-22T10:40:57.904Z,15.61
2017-03-22T10:41:58.059Z,15.64
2017-03-22T10:42:58.038Z,15.58
2017-03-22T10:43:58.054Z,15.64
2017-03-22T10:44:58.190Z,15.65
2017-03-22T10:45:58.200Z,15.57
2017-03-22T10:46:58.209Z,15.68
2017-03-22T10:47:57.753Z,15.68
2017-03-22T10:48:58.216Z,15.64
2017-03-22T10:49:58.225Z,15.62
2017-03-22T10:50:58.234Z,15.62
2017-03-22T10:51:58.242Z,15.65
2017-03-22T10:52:58.241Z,15.59
2017-03-22T10:53:58.251Z,15.61
2017-03-22T10:54:57.972Z,15.65
2017-03-22T10:55:58.092Z,15.64
2017-03-22T10:56:58.377Z,15.68
2017-03-22T10:57:58.333Z,15.65
2017-03-22T10:58:58.352Z,15.62
2017-03-22T10:59:57.756Z,15.64
2017-03-22T11:00:58.388Z,15.65
2017-03-22T11:01:58.397Z,15.62
2017-03-22T11:02:58.097Z,15.7
2017-03-22T11:03:58.153Z,15.75
2017-03-22T11:04:58.368Z,15.75
2017-03-22T11:05:58.389Z,15.72
2017-03-22T11:06:58.401Z,15.75
2017-03-22T11:07:58.427Z,15.83
2017-03-22T11:08:58.450Z,15.76
2017-03-22T11:09:58.464Z,15.82
2017-03-22T11:10:58.185Z,15.77
2017-03-22T11:11:58.505Z,15.86
2017-03-22T11:12:58.520Z,15.94
2017-03-22T11:13:58.541Z,15.92
2017-03-22T11:14:58.558Z,15.91
2017-03-22T11:15:58.689Z,15.86
2017-03-22T11:16:58.592Z,15.92
2017-03-22T11:17:58.623Z,15.86
2017-03-22T11:18:58.642Z,15.88
2017-03-22T11:19:58.339Z,15.92
2017-03-22T11:20:58.361Z,15.97
2017-03-22T11:21:58.380Z,15.97
2017-03-22T11:22:58.720Z,16
2017-03-22T11:23:58.733Z,16.01
2017-03-22T11:24:58.755Z,16.01
2017-03-22T11:25:58.777Z,16
2017-03-22T11:26:58.793Z,16.01
2017-03-22T11:27:58.816Z,16.05
2017-03-22T11:28:58.834Z,16.09
2017-03-22T11:29:58.535Z,16.04
2017-03-22T11:30:58.554Z,16.04
2017-03-22T11:31:58.579Z,16.09
2017-03-22T11:32:58.907Z,16.05
2017-03-22T11:33:58.614Z,16.13
2017-03-22T11:34:58.637Z,16.12
2017-03-22T11:35:58.659Z,16.15
2017-03-22T11:36:58.672Z,16.13
2017-03-22T11:37:59.028Z,16.21
2017-03-22T11:38:59.031Z,16.16
2017-03-22T11:39:59.049Z,16.2
2017-03-22T11:40:58.750Z,16.28
2017-03-22T11:41:58.775Z,16.26
2017-03-22T11:42:58.835Z,16.21
2017-03-22T11:43:59.122Z,16.29
2017-03-22T11:44:59.146Z,16.21
2017-03-22T11:45:59.164Z,16.28
2017-03-22T11:46:59.188Z,16.31
2017-03-22T11:47:59.208Z,16.35
2017-03-22T11:48:59.226Z,16.36
2017-03-22T11:49:59.248Z,16.36
2017-03-22T11:50:58.995Z,16.31
2017-03-22T11:51:59.289Z,16.35
2017-03-22T11:52:59.306Z,16.29
2017-03-22T11:53:58.793Z,16.36
2017-03-22T11:54:59.343Z,16.29
2017-03-22T11:55:59.369Z,16.35
2017-03-22T11:56:59.392Z,16.36
2017-03-22T11:57:58.859Z,16.41
2017-03-22T11:58:59.422Z,16.41
2017-03-22T11:59:59.441Z,16.39
2017-03-22T12:00:59.459Z,16.42
2017-03-22T12:01:59.173Z,16.47
2017-03-22T12:02:59.509Z,16.43
2017-03-22T12:03:59.521Z,16.49
2017-03-22T12:04:59.547Z,16.43
2017-03-22T12:05:59.256Z,16.5
2017-03-22T12:06:59.585Z,16.54
2017-03-22T12:07:59.599Z,16.43
2017-03-22T12:08:59.000Z,16.43
2017-03-22T12:09:59.641Z,16.54
2017-03-22T12:10:59.670Z,16.49
2017-03-22T12:11:59.692Z,16.5
2017-03-22T12:12:59.705Z,16.41
2017-03-22T12:13:59.728Z,16.46
2017-03-22T12:14:59.750Z,16.46
2017-03-22T12:15:59.451Z,16.46
2017-03-22T12:16:59.473Z,16.42
2017-03-22T12:17:59.490Z,16.46
2017-03-22T12:18:59.823Z,16.38
2017-03-22T12:19:59.538Z,16.41
2017-03-22T12:20:59.567Z,16.46
2017-03-22T12:21:59.898Z,16.36
2017-03-22T12:22:59.592Z,16.35
2017-03-22T12:23:59.618Z,16.42
2017-03-22T12:24:59.637Z,16.38
2017-03-22T12:25:59.960Z,16.39
2017-03-22T12:26:59.981Z,16.47
2017-03-22T12:28:00.002Z,16.51
2017-03-22T12:28:59.711Z,16.47
2017-03-22T12:30:00.052Z,16.49
2017-03-22T12:30:59.753Z,16.41
2017-03-22T12:32:00.091Z,16.56
2017-03-22T12:33:00.111Z,16.53
2017-03-22T12:33:59.815Z,16.47
2017-03-22T12:34:59.835Z,16.49
2017-03-22T12:35:59.854Z,16.5
2017-03-22T12:36:59.568Z,16.58
2017-03-22T12:37:59.578Z,16.5
2017-03-22T12:39:00.239Z,16.49
2017-03-22T12:39:59.625Z,16.53
2017-03-22T12:40:59.953Z,16.51
2017-03-22T12:41:59.996Z,16.51
2017-03-22T12:43:00.345Z,16.54
2017-03-22T12:43:59.702Z,16.54
2017-03-22T12:45:00.350Z,16.58
2017-03-22T12:46:00.057Z,16.54
2017-03-22T12:47:00.386Z,16.57
2017-03-22T12:48:00.412Z,16.56
2017-03-22T12:48:59.804Z,16.54
2017-03-22T12:50:00.462Z,16.51
2017-03-22T12:51:00.473Z,16.6
2017-03-22T12:52:00.608Z,16.64
2017-03-22T12:53:00.610Z,16.64
2017-03-22T12:54:00.619Z,16.6
2017-03-22T12:55:00.237Z,16.65
2017-03-22T12:56:00.265Z,16.58
2017-03-22T12:57:00.630Z,16.68
2017-03-22T12:58:00.644Z,16.61
2017-03-22T12:59:00.645Z,16.61
2017-03-22T13:00:00.661Z,16.75
2017-03-22T13:01:00.792Z,16.75
2017-03-22T13:02:00.801Z,16.83
2017-03-22T13:03:00.731Z,16.78
2017-03-22T13:04:00.736Z,16.78
2017-03-22T13:05:00.558Z,16.79
2017-03-22T13:06:00.874Z,16.81